Time;durP1;ratioP1;P1;durP2;ratioP2;P2;SDS_P1;SDS_P2;PMS_P1;PMS_P2;Temp;Humidity;BMP_temperature;BMP_pressure;BME280_temperature;BME280_humidity;BME280_pressure;Samples;Min_cycle;Max_cycle;Signal;HPM_P1;HPM_P2
2022/10/02 00:00:21;;;;;;;16.98;3.50;;;;;;;13.00;86.88;101350.66;5022249;28;20703;-69
2022/10/02 00:02:59;;;;;;;20.03;3.93;;;;;;;13.03;86.87;101347.03;5043170;28;20089;-69
2022/10/02 00:05:44;;;;;;;18.92;5.38;;;;;;;13.04;86.99;101347.00;5027758;28;20252;-68
2022/10/02 00:08:27;;;;;;;18.50;5.57;;;;;;;13.07;86.84;101350.47;5027886;28;20038;-70
2022/10/02 00:11:04;;;;;;;21.38;6.55;;;;;;;13.08;86.96;101346.88;5026555;28;20050;-70
2022/10/02 00:13:46;;;;;;;27.17;6.78;;;;;;;13.10;87.28;101340.66;5025823;28;20037;-69
2022/10/02 00:16:32;;;;;;;26.13;7.57;;;;;;;13.08;87.02;101331.88;5028431;28;20504;-69
2022/10/02 00:19:01;;;;;;;18.05;7.07;;;;;;;13.01;86.43;101338.31;5025951;28;20058;-69
2022/10/02 00:21:55;;;;;;;21.88;7.07;;;;;;;12.93;86.47;101346.50;5029855;28;20057;-69
2022/10/02 00:24:46;;;;;;;16.85;6.68;;;;;;;12.90;86.82;101349.22;5027970;28;20529;-68
2022/10/02 00:27:45;;;;;;;19.75;6.72;;;;;;;12.91;87.32;101360.69;5029153;28;20130;-68
2022/10/02 00:30:16;;;;;;;20.80;7.00;;;;;;;12.89;87.52;101353.66;5022721;28;20585;-69
2022/10/02 00:33:25;;;;;;;28.00;7.05;;;;;;;12.93;87.65;101351.78;5026252;28;20038;-67
2022/10/02 00:36:33;;;;;;;22.20;6.95;;;;;;;12.98;87.96;101355.13;5027089;28;20531;-67
2022/10/02 00:39:21;;;;;;;29.25;7.35;;;;;;;13.01;87.91;101359.47;5017767;28;20132;-67
2022/10/02 00:42:36;;;;;;;19.73;7.22;;;;;;;13.03;87.87;101353.22;5026896;28;20088;-66
2022/10/02 00:45:45;;;;;;;24.43;7.07;;;;;;;13.05;87.95;101356.69;5026286;28;20038;-67
2022/10/02 00:48:37;;;;;;;25.60;8.30;;;;;;;13.09;87.93;101351.28;5020938;28;20169;-67
2022/10/02 00:51:37;;;;;;;22.08;8.38;;;;;;;13.11;88.20;101349.44;5022786;28;20078;-68
2022/10/02 00:54:28;;;;;;;25.15;8.30;;;;;;;13.15;88.26;101349.28;5023711;28;20498;-68
2022/10/02 00:57:37;;;;;;;22.65;8.32;;;;;;;13.17;88.23;101343.97;5021759;28;20046;-68
2022/10/02 01:00:12;;;;;;;24.05;8.98;;;;;;;13.17;88.03;101347.47;5025919;28;20053;-68
2022/10/02 01:02:55;;;;;;;27.13;8.55;;;;;;;13.15;87.99;101344.00;5027543;28;20061;-68
2022/10/02 01:05:22;;;;;;;25.73;8.82;;;;;;;13.14;87.98;101346.69;5026642;28;20046;-67
2022/10/02 01:07:53;;;;;;;27.95;8.30;;;;;;;13.08;87.41;101337.19;5028285;28;20041;-67
2022/10/02 01:10:24;;;;;;;31.27;9.02;;;;;;;12.99;87.66;101340.13;5026511;28;20046;-68
2022/10/02 01:12:54;;;;;;;29.10;7.90;;;;;;;12.94;87.61;101347.34;5031131;28;20046;-68
2022/10/02 01:15:29;;;;;;;26.17;8.65;;;;;;;12.88;88.01;101341.34;5031563;28;20045;-67
2022/10/02 01:17:57;;;;;;;26.38;7.75;;;;;;;12.81;87.86;101336.28;5028328;28;20061;-68
2022/10/02 01:20:47;;;;;;;22.92;7.05;;;;;;;12.74;87.97;101341.78;5031058;28;20038;-67
2022/10/02 01:23:41;;;;;;;25.80;7.95;;;;;;;12.70;88.01;101347.22;5023358;28;20038;-67
2022/10/02 01:26:08;;;;;;;22.88;8.10;;;;;;;12.65;88.16;101343.84;5030925;28;20148;-67
2022/10/02 01:28:36;;;;;;;16.25;7.68;;;;;;;12.61;88.30;101345.72;5033118;28;20045;-67
2022/10/02 01:31:13;;;;;;;23.27;7.88;;;;;;;12.55;88.43;101341.47;5030213;28;20045;-67
2022/10/02 01:33:43;;;;;;;22.13;7.95;;;;;;;12.50;88.33;101337.25;5027524;28;20038;-67
2022/10/02 01:36:13;;;;;;;22.98;8.10;;;;;;;12.43;88.54;101331.28;5027395;28;20404;-67
2022/10/02 01:38:43;;;;;;;25.88;7.60;;;;;;;12.37;88.60;101336.75;5030831;28;20542;-68
2022/10/02 01:41:11;;;;;;;24.45;7.68;;;;;;;12.31;88.74;101337.78;5020652;28;20049;-68
2022/10/02 01:43:58;;;;;;;28.05;7.85;;;;;;;12.32;89.07;101347.47;5029846;28;20511;-67
2022/10/02 01:46:46;;;;;;;17.92;7.43;;;;;;;12.33;89.44;101351.84;5022180;28;20100;-67
2022/10/02 01:49:47;;;;;;;26.92;6.75;;;;;;;12.33;89.54;101349.19;5030631;28;20304;-68
2022/10/02 01:52:58;;;;;;;25.13;6.57;;;;;;;12.36;89.92;101351.72;5030269;28;20045;-67
2022/10/02 01:55:59;;;;;;;19.52;5.80;;;;;;;12.41;90.16;101343.69;5022696;28;20070;-68
2022/10/02 01:58:50;;;;;;;23.17;5.50;;;;;;;12.45;90.19;101344.47;5030843;28;20042;-68
2022/10/02 02:01:23;;;;;;;21.63;4.55;;;;;;;12.47;90.29;101345.25;5030032;28;20096;-68
2022/10/02 02:04:26;;;;;;;29.77;4.80;;;;;;;12.48;90.36;101341.69;5025015;28;20507;-68
2022/10/02 02:07:12;;;;;;;20.40;4.25;;;;;;;12.48;90.63;101337.31;5023008;28;20046;-68
2022/10/02 02:09:59;;;;;;;21.08;4.45;;;;;;;12.46;90.40;101344.41;5025167;28;20088;-68
2022/10/02 02:12:52;;;;;;;18.80;3.88;;;;;;;12.41;90.42;101333.97;5029951;28;20037;-68
2022/10/02 02:15:39;;;;;;;18.33;3.97;;;;;;;12.46;90.72;101347.06;5030221;28;20120;-68
2022/10/02 02:18:23;;;;;;;22.48;3.90;;;;;;;12.47;90.97;101337.31;5022446;28;20148;-68
2022/10/02 02:21:04;;;;;;;21.35;4.40;;;;;;;12.50;91.33;101338.13;5028742;28;20045;-68
2022/10/02 02:23:37;;;;;;;25.80;4.82;;;;;;;12.55;91.44;101335.34;5032064;28;20038;-68
2022/10/02 02:26:11;;;;;;;21.38;4.28;;;;;;;12.57;91.37;101334.38;5032419;28;20150;-68
2022/10/02 02:28:45;;;;;;;;;;;;;;;12.54;91.18;101345.03;5029545;28;20513;-68
2022/10/02 02:31:19;;;;;;;24.42;3.58;;;;;;;12.57;91.64;101346.72;5030454;28;19948;-68
2022/10/02 02:33:58;;;;;;;24.17;3.58;;;;;;;12.59;91.69;101352.81;5027897;28;20042;-67
2022/10/02 02:36:34;;;;;;;29.73;4.57;;;;;;;12.60;91.85;101346.63;5029634;28;20518;-67
2022/10/02 02:39:12;;;;;;;31.92;4.63;;;;;;;12.64;91.97;101356.22;5029469;28;20062;-68
2022/10/02 02:41:52;;;;;;;21.38;3.25;;;;;;;12.67;91.82;101348.16;5023452;28;20523;-69
2022/10/02 02:44:40;;;;;;;32.38;4.18;;;;;;;12.67;91.65;101353.44;5028810;28;20530;-68
2022/10/02 02:47:21;;;;;;;22.20;3.97;;;;;;;12.65;91.64;101343.84;5028958;28;20045;-68
2022/10/02 02:50:00;;;;;;;25.98;3.67;;;;;;;12.65;91.75;101349.13;5026719;28;20472;-68
2022/10/02 02:52:43;;;;;;;19.55;3.35;;;;;;;12.68;92.11;101349.03;5020088;28;20081;-69
2022/10/02 02:55:36;;;;;;;26.67;4.55;;;;;;;12.73;92.40;101348.00;5029886;28;20042;-68
2022/10/02 02:58:25;;;;;;;22.10;3.60;;;;;;;12.79;92.35;101351.34;5022887;28;20060;-69
2022/10/02 03:00:53;;;;;;;26.88;3.95;;;;;;;12.81;92.44;101341.59;5032452;28;20117;-70
2022/10/02 03:03:21;;;;;;;28.75;3.90;;;;;;;12.88;92.65;101341.34;5023242;28;20046;-69
2022/10/02 03:05:56;;;;;;;22.83;3.90;;;;;;;12.91;92.49;101356.25;5030147;28;20049;-69
2022/10/02 03:08:33;;;;;;;28.73;4.20;;;;;;;12.93;92.67;101351.78;5027807;28;20045;-69
2022/10/02 03:11:34;;;;;;;24.13;3.53;;;;;;;12.96;92.33;101341.09;5027635;28;20042;-68
2022/10/02 03:15:07;;;;;;;24.00;4.60;;;;;;;12.94;92.21;101337.63;5023266;28;20050;-68
2022/10/02 03:18:04;;;;;;;29.05;4.05;;;;;;;12.94;92.35;101339.41;5026422;28;20084;-68
2022/10/02 03:21:12;;;;;;;31.67;4.78;;;;;;;12.92;92.29;101344.75;5027960;28;20073;-68
2022/10/02 03:23:54;;;;;;;28.90;5.15;;;;;;;12.91;92.55;101337.72;5024684;28;20041;-69
2022/10/02 03:26:37;;;;;;;23.65;4.07;;;;;;;12.88;92.64;101338.69;5022152;28;20054;-69
2022/10/02 03:29:17;;;;;;;22.30;4.40;;;;;;;12.87;92.53;101341.41;5026972;28;20057;-68
2022/10/02 03:31:47;;;;;;;25.58;3.78;;;;;;;12.83;92.58;101348.53;5029355;28;20053;-68
2022/10/02 03:34:16;;;;;;;25.95;4.15;;;;;;;12.83;92.59;101355.63;5028162;28;20567;-69
2022/10/02 03:36:45;;;;;;;26.23;3.75;;;;;;;12.81;92.84;101345.09;5028991;28;20068;-69
2022/10/02 03:39:13;;;;;;;24.77;4.15;;;;;;;12.81;92.82;101350.41;5023131;28;20050;-69
2022/10/02 03:41:55;;;;;;;25.45;4.05;;;;;;;12.85;93.24;101348.53;5027997;28;20037;-68
2022/10/02 03:44:22;;;;;;;20.75;3.60;;;;;;;12.87;93.44;101352.00;5027828;28;20496;-67
2022/10/02 03:46:49;;;;;;;27.10;4.22;;;;;;;12.90;93.39;101354.50;5023718;28;20041;-68
2022/10/02 03:49:16;;;;;;;22.85;4.03;;;;;;;12.94;93.44;101344.69;5028915;28;20874;-68
2022/10/02 03:51:43;;;;;;;31.45;4.68;;;;;;;12.97;93.40;101353.41;5031016;28;20122;-68
2022/10/02 03:54:21;;;;;;;19.20;3.47;;;;;;;13.00;93.21;101339.22;5030231;28;20519;-68
2022/10/02 03:57:02;;;;;;;24.65;4.00;;;;;;;13.05;93.22;101354.03;5029238;28;20125;-68
2022/10/02 04:00:12;;;;;;;17.05;3.47;;;;;;;13.07;93.13;101347.84;5025220;28;20046;-68
2022/10/02 04:02:56;;;;;;;22.05;3.60;;;;;;;13.08;92.75;101347.78;5024189;28;20054;-68
2022/10/02 04:05:33;;;;;;;18.70;3.53;;;;;;;13.09;92.63;101348.63;5022610;28;20505;-68
2022/10/02 04:08:16;;;;;;;20.27;3.55;;;;;;;13.10;92.54;101353.88;5027591;28;20041;-68
2022/10/02 04:11:04;;;;;;;17.90;3.60;;;;;;;13.10;92.64;101350.34;5030937;28;20042;-68
2022/10/02 04:13:49;;;;;;;17.98;3.25;;;;;;;13.14;91.95;101357.28;5027471;28;20042;-69
2022/10/02 04:16:26;;;;;;;14.02;3.00;;;;;;;13.13;92.12;101355.56;5029608;28;20045;-68
2022/10/02 04:19:01;;;;;;;15.95;3.10;;;;;;;13.13;92.03;101350.25;5028476;28;20069;-68
2022/10/02 04:21:36;;;;;;;17.13;3.30;;;;;;;13.18;91.99;101353.59;5025665;28;20048;-68
2022/10/02 04:24:29;;;;;;;14.32;3.45;;;;;;;13.22;91.68;101360.53;5028959;28;20042;-68
2022/10/02 04:27:08;;;;;;;18.15;3.10;;;;;;;13.25;91.54;101362.22;5018972;28;20218;-69
2022/10/02 04:30:04;;;;;;;13.23;2.67;;;;;;;13.24;91.15;101357.84;5026383;28;20140;-68
2022/10/02 04:32:35;;;;;;;10.52;2.15;;;;;;;13.21;91.09;101364.09;5026837;28;20101;-68
2022/10/02 04:35:30;;;;;;;16.88;2.90;;;;;;;13.18;91.38;101350.97;5025206;28;20041;-68
2022/10/02 04:38:26;;;;;;;14.20;3.15;;;;;;;13.16;90.90;101353.66;5028061;28;20123;-68
2022/10/02 04:41:26;;;;;;;14.45;3.30;;;;;;;13.13;91.01;101359.06;5028257;28;20492;-68
2022/10/02 04:44:35;;;;;;;14.30;3.08;;;;;;;13.10;90.96;101355.66;5023783;28;20045;-68
2022/10/02 04:47:48;;;;;;;15.88;2.85;;;;;;;13.04;90.85;101362.00;5031885;28;20484;-68
2022/10/02 04:50:47;;;;;;;17.00;3.45;;;;;;;13.04;91.13;101370.81;5022407;28;20125;-68
2022/10/02 04:53:49;;;;;;;13.20;2.95;;;;;;;13.00;91.09;101374.47;5021773;28;20784;-67
2022/10/02 04:56:48;;;;;;;10.60;2.80;;;;;;;12.97;91.07;101385.16;5031289;28;20129;-67
2022/10/02 04:59:47;;;;;;;16.48;3.20;;;;;;;12.95;91.30;101388.78;5028708;28;20590;-68
2022/10/02 05:02:39;;;;;;;11.35;2.80;;;;;;;12.93;91.23;101394.13;5027404;28;20097;-68
2022/10/02 05:05:27;;;;;;;11.10;2.67;;;;;;;12.88;91.26;101386.31;5030420;28;20045;-67
2022/10/02 05:08:34;;;;;;;14.40;3.20;;;;;;;12.86;91.25;101393.44;5031562;28;20049;-67
2022/10/02 05:11:20;;;;;;;8.23;2.67;;;;;;;12.83;91.38;101401.47;5030816;28;20038;-68
2022/10/02 05:14:41;;;;;;;10.50;2.50;;;;;;;12.81;91.30;101399.78;5030048;28;20038;-68
2022/10/02 05:17:38;;;;;;;14.13;3.03;;;;;;;12.80;91.62;101398.94;5027111;28;20136;-68
2022/10/02 05:20:44;;;;;;;9.70;2.53;;;;;;;12.77;91.41;101392.88;5026852;28;20052;-68
2022/10/02 05:23:35;;;;;;;9.07;2.70;;;;;;;12.74;91.55;101396.47;5012166;28;20105;-68
2022/10/02 05:26:35;;;;;;;11.57;2.40;;;;;;;12.72;91.60;101391.22;5029093;28;20045;-68
2022/10/02 05:29:44;;;;;;;13.85;2.80;;;;;;;12.69;91.58;101396.59;5024679;28;20045;-68
2022/10/02 05:32:20;;;;;;;9.77;2.63;;;;;;;12.70;91.68;101397.47;5029961;28;20093;-68
2022/10/02 05:35:11;;;;;;;14.57;3.13;;;;;;;12.72;91.57;101400.91;5032063;28;20046;-67
2022/10/02 05:38:07;;;;;;;11.57;3.63;;;;;;;12.70;91.63;101414.22;5030815;28;20042;-67
2022/10/02 05:41:16;;;;;;;13.80;3.65;;;;;;;12.70;91.66;101413.34;5028343;28;20046;-71
2022/10/02 05:44:21;;;;;;;11.25;3.72;;;;;;;12.71;91.94;101428.31;5035925;28;20053;-71
2022/10/02 05:47:04;;;;;;;11.65;4.50;;;;;;;12.73;92.04;101422.06;5028858;28;20054;-70
2022/10/02 05:49:43;;;;;;;10.82;3.90;;;;;;;12.76;92.19;101426.38;5030801;28;20038;-70
2022/10/02 05:52:22;;;;;;;18.40;4.60;;;;;;;12.79;92.13;101436.00;5033030;28;20045;-71
2022/10/02 05:54:57;;;;;;;13.23;4.55;;;;;;;12.81;92.31;101434.19;5020103;28;20042;-70
2022/10/02 05:58:03;;;;;;;15.60;4.18;;;;;;;12.82;92.08;101435.91;5034744;28;20050;-70
2022/10/02 06:00:39;;;;;;;12.30;4.75;;;;;;;12.83;92.18;101438.50;5026788;28;20057;-69
2022/10/02 06:03:15;;;;;;;17.13;5.05;;;;;;;12.89;92.20;101440.09;5030204;28;20524;-69
2022/10/02 06:06:03;;;;;;;16.95;5.28;;;;;;;12.90;91.95;101439.19;5027946;28;20044;-67
2022/10/02 06:08:42;;;;;;;17.42;5.05;;;;;;;12.93;91.87;101439.09;5029481;28;20042;-67
2022/10/02 06:11:21;;;;;;;20.15;4.97;;;;;;;12.97;92.00;101445.16;5030955;28;20871;-68
2022/10/02 06:14:05;;;;;;;16.83;5.20;;;;;;;13.02;91.84;101454.69;5026551;28;20089;-67
2022/10/02 06:16:43;;;;;;;;;;;;;;;13.02;91.66;101459.16;5032872;28;20038;-67
2022/10/02 06:19:25;;;;;;;15.25;4.97;;;;;;;13.05;91.57;101451.09;5025493;28;19925;-68
2022/10/02 06:22:18;;;;;;;17.98;5.00;;;;;;;13.14;91.69;101448.16;5033762;28;20048;-68
2022/10/02 06:25:03;;;;;;;12.93;5.38;;;;;;;13.24;91.73;101455.78;5031253;28;20775;-66
2022/10/02 06:27:55;;;;;;;18.13;6.40;;;;;;;13.30;91.56;101455.63;5032426;28;20034;-67
2022/10/02 06:30:22;;;;;;;15.63;5.40;;;;;;;13.36;91.39;101468.66;5024924;28;20046;-67
2022/10/02 06:33:22;;;;;;;15.75;5.78;;;;;;;13.40;90.94;101470.34;5028975;28;21026;-67
2022/10/02 06:36:21;;;;;;;18.08;6.03;;;;;;;13.39;90.86;101467.69;5027528;28;20042;-67
2022/10/02 06:39:18;;;;;;;18.42;6.30;;;;;;;13.36;90.66;101474.84;5038104;28;20582;-66
2022/10/02 06:42:20;;;;;;;17.42;6.15;;;;;;;13.36;90.86;101480.13;5028631;28;20100;-66
2022/10/02 06:45:13;;;;;;;21.95;7.30;;;;;;;13.40;90.91;101475.63;5027734;28;20046;-67
2022/10/02 06:48:23;;;;;;;19.73;6.97;;;;;;;13.48;90.96;101478.03;5031598;28;20053;-66
2022/10/02 06:51:08;;;;;;;18.35;7.03;;;;;;;13.60;91.14;101471.47;5029755;28;20098;-66
2022/10/02 06:54:04;;;;;;;;;;;;;;;13.72;91.05;101471.06;5030063;28;20030;-66
2022/10/02 06:57:27;;;;;;;20.73;6.75;;;;;;;13.79;90.78;101472.59;5032548;28;19925;-66
2022/10/02 07:00:17;;;;;;;19.40;7.20;;;;;;;13.85;90.60;101478.56;5031025;28;20045;-66
2022/10/02 07:03:31;;;;;;;18.42;7.88;;;;;;;13.88;90.25;101478.47;5030090;28;20982;-66
2022/10/02 07:06:32;;;;;;;21.20;7.78;;;;;;;13.96;90.34;101481.72;5002122;28;20053;-66
2022/10/02 07:09:22;;;;;;;23.17;8.52;;;;;;;14.03;90.38;101493.00;5029328;28;20057;-67
2022/10/02 07:12:50;;;;;;;23.95;8.50;;;;;;;14.09;90.27;101485.69;5034079;28;20141;-66
2022/10/02 07:15:47;;;;;;;20.52;7.90;;;;;;;14.19;90.33;101490.69;5030537;28;20050;-66
2022/10/02 07:19:15;;;;;;;25.15;8.75;;;;;;;14.22;89.99;101496.72;5028569;28;20062;-67
2022/10/02 07:22:20;;;;;;;24.08;7.95;;;;;;;14.22;89.71;101490.59;5025946;28;20042;-67
2022/10/02 07:25:40;;;;;;;23.20;8.27;;;;;;;14.20;89.77;101500.38;5021511;28;20064;-66
2022/10/02 07:28:33;;;;;;;24.70;8.07;;;;;;;14.20;89.93;101501.22;5027690;28;20041;-67
2022/10/02 07:31:21;;;;;;;24.55;8.75;;;;;;;14.25;90.19;101517.84;5018010;28;20129;-67
2022/10/02 07:34:15;;;;;;;24.60;7.47;;;;;;;14.26;90.19;101506.31;5022823;28;20048;-67
2022/10/02 07:37:14;;;;;;;19.33;7.38;;;;;;;14.32;90.42;101507.91;5029032;28;20047;-67
2022/10/02 07:40:10;;;;;;;20.15;7.25;;;;;;;14.39;90.37;101514.72;5030055;28;20500;-67
2022/10/02 07:42:49;;;;;;;29.00;7.68;;;;;;;14.50;90.49;101519.63;5030939;28;20104;-67
2022/10/02 07:45:41;;;;;;;24.42;6.20;;;;;;;14.61;90.03;101521.91;5025517;28;20057;-67
2022/10/02 07:48:43;;;;;;;21.17;6.35;;;;;;;14.77;90.05;101529.31;5027778;28;20156;-61
2022/10/02 07:51:46;;;;;;;24.33;6.68;;;;;;;14.91;89.99;101525.22;5026524;28;20074;-63
2022/10/02 07:55:00;;;;;;;21.65;7.15;;;;;;;15.14;89.63;101528.78;5026892;28;20033;-64
2022/10/02 07:58:11;;;;;;;24.17;6.47;;;;;;;15.32;89.64;101531.66;5029723;28;20054;-64
2022/10/02 08:00:46;;;;;;;19.38;6.05;;;;;;;15.44;89.05;101538.28;5027818;28;20049;-64
2022/10/02 08:03:34;;;;;;;20.55;5.93;;;;;;;15.56;88.15;101548.44;5025667;28;20038;-64
2022/10/02 08:06:05;;;;;;;23.55;6.07;;;;;;;15.59;87.29;101547.44;5025784;28;20034;-65
2022/10/02 08:08:50;;;;;;;21.80;6.07;;;;;;;15.63;87.27;101560.53;5026684;28;20081;-65
2022/10/02 08:11:49;;;;;;;14.60;5.15;;;;;;;15.66;87.23;101546.25;5030479;28;20050;-64
2022/10/02 08:14:24;;;;;;;21.40;6.30;;;;;;;15.65;86.61;101555.16;5028529;28;20523;-64
2022/10/02 08:17:15;;;;;;;20.73;5.93;;;;;;;15.64;86.21;101554.31;5025574;28;20143;-64
2022/10/02 08:19:50;;;;;;;22.98;6.07;;;;;;;15.63;86.09;101549.91;5028948;28;20191;-65
2022/10/02 08:22:44;;;;;;;18.13;6.07;;;;;;;15.64;86.38;101561.41;5030021;28;20066;-64
2022/10/02 08:25:24;;;;;;;15.68;5.38;;;;;;;15.66;86.38;101564.88;5029491;28;20440;-64
2022/10/02 08:28:08;;;;;;;17.77;5.78;;;;;;;15.69;86.48;101565.59;5021769;28;20046;-64
2022/10/02 08:30:36;;;;;;;18.73;6.40;;;;;;;15.76;86.21;101574.19;5027757;28;20459;-64
2022/10/02 08:33:21;;;;;;;23.30;6.82;;;;;;;15.80;86.35;101573.16;5019882;28;20038;-64
2022/10/02 08:36:24;;;;;;;15.52;5.25;;;;;;;15.90;85.56;101572.81;5022429;28;20050;-64
2022/10/02 08:39:34;;;;;;;16.80;5.78;;;;;;;15.94;84.35;101582.38;5021333;28;20562;-64
2022/10/02 08:42:48;;;;;;;14.98;5.70;;;;;;;15.94;84.15;101585.91;5020435;28;20038;-63
2022/10/02 08:46:06;;;;;;;12.82;5.60;;;;;;;15.99;84.10;101593.69;5025038;28;20046;-63
2022/10/02 08:49:13;;;;;;;17.40;5.60;;;;;;;16.06;83.62;101592.50;5018557;28;20102;-63
2022/10/02 08:52:12;;;;;;;12.88;5.05;;;;;;;16.12;83.88;101596.72;5022676;28;20042;-70
2022/10/02 08:55:05;;;;;;;15.18;5.30;;;;;;;16.24;83.18;101609.50;5015245;28;20056;-70
2022/10/02 08:58:47;;;;;;;16.20;5.50;;;;;;;16.29;81.96;101610.16;5023974;28;20058;-70
2022/10/02 09:01:30;;;;;;;11.98;5.25;;;;;;;16.34;81.65;101612.63;5044715;28;20049;-70
2022/10/02 09:04:27;;;;;;;16.90;5.10;;;;;;;16.40;81.92;101611.50;5044848;28;20246;-70
2022/10/02 09:07:05;;;;;;;16.27;5.45;;;;;;;16.42;81.65;101607.88;5027181;28;20046;-69
2022/10/02 09:09:41;;;;;;;14.30;4.55;;;;;;;16.48;80.43;101608.53;5029066;28;20042;-70
2022/10/02 09:12:29;;;;;;;15.18;4.72;;;;;;;16.44;80.67;101618.44;5030737;28;20042;-70
2022/10/02 09:15:17;;;;;;;13.75;4.43;;;;;;;16.44;80.28;101613.97;5030960;28;20049;-70
2022/10/02 09:18:24;;;;;;;15.23;3.72;;;;;;;16.39;80.17;101610.66;5029117;28;20077;-70
2022/10/02 09:21:22;;;;;;;13.60;3.38;;;;;;;16.41;80.11;101624.75;5024111;28;20042;-70
2022/10/02 09:24:26;;;;;;;15.43;3.60;;;;;;;16.57;79.16;101624.09;5033653;28;20117;-68
2022/10/02 09:27:32;;;;;;;11.65;2.17;;;;;;;16.59;76.07;101628.41;5021861;28;20125;-68
2022/10/02 09:30:28;;;;;;;10.02;2.25;;;;;;;16.46;77.53;101622.75;5023164;28;20101;-68
2022/10/02 09:33:45;;;;;;;10.25;2.50;;;;;;;16.58;77.28;101613.38;5022103;28;20093;-69
2022/10/02 09:36:48;;;;;;;11.30;2.30;;;;;;;16.81;77.15;101607.97;5025709;28;20042;-68
2022/10/02 09:39:30;;;;;;;13.73;2.28;;;;;;;17.02;76.52;101614.16;5029059;28;20042;-68
2022/10/02 09:42:22;;;;;;;7.45;1.83;;;;;;;17.10;73.36;101613.81;5029633;28;20038;-69
2022/10/02 09:45:12;;;;;;;13.05;2.15;;;;;;;17.04;74.18;101612.31;5028909;28;20050;-68
2022/10/02 09:48:16;;;;;;;12.68;2.10;;;;;;;17.00;72.15;101621.34;5025121;28;20053;-69
2022/10/02 09:51:19;;;;;;;12.70;1.75;;;;;;;17.01;70.07;101618.66;5031234;28;20113;-69
2022/10/02 09:54:01;;;;;;;11.52;2.30;;;;;;;16.99;70.36;101622.31;5031334;28;20559;-70
2022/10/02 09:56:47;;;;;;;12.43;2.40;;;;;;;16.98;70.30;101629.44;5031170;28;20097;-70
2022/10/02 09:59:47;;;;;;;11.32;1.90;;;;;;;17.06;69.69;101627.28;5034624;28;20045;-68
2022/10/02 10:02:49;;;;;;;13.45;2.28;;;;;;;17.13;70.80;101632.34;5031556;28;20045;-67
2022/10/02 10:06:03;;;;;;;12.48;2.22;;;;;;;17.33;72.04;101640.28;5031851;28;20072;-67
2022/10/02 10:09:09;;;;;;;8.85;1.70;;;;;;;17.48;70.36;101630.72;5025835;28;20108;-69
2022/10/02 10:12:24;;;;;;;11.07;2.03;;;;;;;17.51;69.68;101633.22;5030983;28;20049;-68
2022/10/02 10:15:32;;;;;;;14.68;1.77;;;;;;;17.58;68.48;101641.78;5028554;28;20038;-68
2022/10/02 10:18:32;;;;;;;10.35;2.03;;;;;;;17.72;67.52;101641.13;5028548;28;20100;-69
2022/10/02 10:21:23;;;;;;;9.73;1.70;;;;;;;17.90;67.06;101638.53;5029930;28;20048;-69
2022/10/02 10:24:33;;;;;;;6.85;1.63;;;;;;;18.19;66.82;101638.94;5026619;28;20042;-70
2022/10/02 10:27:35;;;;;;;12.82;2.03;;;;;;;18.39;64.10;101644.13;5029629;28;20570;-71
2022/10/02 10:30:05;;;;;;;12.10;1.85;;;;;;;18.39;65.10;101645.94;5033516;28;20042;-69
2022/10/02 10:32:51;;;;;;;11.55;1.92;;;;;;;18.50;64.16;101653.41;5031401;28;20496;-71
2022/10/02 10:38:31;;;;;;;9.80;1.85;;;;;;;18.39;64.51;101646.81;5030231;28;20053;-70
2022/10/02 10:39:56;;;;;;;15.48;2.20;;;;;;;18.33;61.71;101655.09;5032670;28;20046;-70
2022/10/02 10:43:03;;;;;;;12.77;1.73;;;;;;;18.31;62.07;101665.88;5006918;28;20050;-68
2022/10/02 10:45:55;;;;;;;10.32;1.27;;;;;;;18.60;62.10;101657.34;5031614;28;20050;-68
2022/10/02 10:48:33;;;;;;;12.43;1.92;;;;;;;18.65;61.17;101657.09;5030203;28;20037;-68
2022/10/02 10:51:13;;;;;;;11.30;1.40;;;;;;;18.73;60.62;101665.56;5030168;28;20574;-67
2022/10/02 10:54:20;;;;;;;7.57;1.38;;;;;;;18.78;59.54;101677.75;5031035;28;20065;-67
2022/10/02 10:57:30;;;;;;;10.85;1.85;;;;;;;18.83;59.69;101676.63;5027821;28;20048;-67
2022/10/02 11:00:35;;;;;;;15.98;1.90;;;;;;;19.02;59.36;101688.13;5031515;28;20049;-67
2022/10/02 11:03:50;;;;;;;13.55;1.77;;;;;;;19.41;60.39;101683.38;5029061;28;20702;-68
2022/10/02 11:07:06;;;;;;;12.05;2.35;;;;;;;19.66;58.59;101679.38;5029704;28;20041;-69
2022/10/02 11:10:30;;;;;;;7.35;1.58;;;;;;;19.69;56.56;101689.88;5031322;28;20484;-70
2022/10/02 11:13:22;;;;;;;8.48;1.70;;;;;;;19.39;56.62;101675.47;5032055;28;20443;-70
2022/10/02 11:16:36;;;;;;;8.65;1.65;;;;;;;19.04;57.38;101686.22;5031467;28;20491;-68
2022/10/02 11:19:44;;;;;;;11.30;1.98;;;;;;;18.76;58.82;101681.44;5027783;28;20164;-70
2022/10/02 11:22:48;;;;;;;6.45;1.30;;;;;;;18.71;59.73;101679.00;5046640;28;20080;-69
2022/10/02 11:26:06;;;;;;;9.80;1.70;;;;;;;18.74;59.84;101686.00;5028043;28;20840;-70
2022/10/02 11:28:57;;;;;;;7.50;1.42;;;;;;;18.68;59.76;101686.28;5031394;28;20457;-70
2022/10/02 11:31:29;;;;;;;7.28;1.35;;;;;;;18.60;59.70;101684.03;5027131;28;20045;-70
2022/10/02 11:34:24;;;;;;;6.78;1.60;;;;;;;18.50;60.84;101677.44;5026495;28;20127;-70
2022/10/02 11:37:00;;;;;;;;;;;;;;;18.41;60.66;101689.44;5030403;28;20048;-69
2022/10/02 11:39:58;;;;;;;7.53;1.33;;;;;;;18.31;61.68;101700.56;5031044;28;19925;-69
2022/10/02 11:42:49;;;;;;;7.22;1.35;;;;;;;18.26;61.03;101707.91;5028141;28;20093;-70
2022/10/02 11:45:40;;;;;;;8.07;1.52;;;;;;;18.21;61.39;101704.63;5029855;28;20046;-70
2022/10/02 11:48:49;;;;;;;6.97;1.60;;;;;;;18.19;61.73;101701.16;5029693;28;20078;-69
2022/10/02 11:51:49;;;;;;;11.05;1.73;;;;;;;18.22;61.34;101710.81;5023802;28;20046;-69
2022/10/02 11:55:17;;;;;;;12.82;1.67;;;;;;;18.13;60.26;101710.31;5029520;28;20037;-70
2022/10/02 11:57:46;;;;;;;7.47;1.40;;;;;;;17.98;60.46;101717.28;5028894;28;20988;-69
2022/10/02 12:00:40;;;;;;;8.52;1.38;;;;;;;17.93;59.79;101713.94;5031166;28;20045;-69
2022/10/02 12:03:49;;;;;;;8.55;1.63;;;;;;;18.00;60.50;101715.41;5030065;28;20045;-69
2022/10/02 12:06:35;;;;;;;8.18;1.83;;;;;;;18.23;61.25;101709.88;5022487;28;20045;-70
2022/10/02 12:09:42;;;;;;;9.15;1.38;;;;;;;18.44;60.92;101707.97;5028487;28;20132;-70
2022/10/02 12:12:51;;;;;;;10.70;1.58;;;;;;;18.63;60.65;101708.78;5030181;28;20050;-69
2022/10/02 12:15:33;;;;;;;9.57;1.73;;;;;;;18.68;58.94;101704.97;5030506;28;20049;-68
2022/10/02 12:18:16;;;;;;;9.13;1.73;;;;;;;18.65;59.06;101705.16;5023644;28;20706;-68
2022/10/02 12:28:04;;;;;;;8.95;1.77;;;;;;;18.84;59.60;101719.31;5025120;28;20065;-67
2022/10/02 12:30:53;;;;;;;7.65;1.50;;;;;;;18.85;58.19;101721.03;5028262;28;20085;-68
2022/10/02 12:33:32;;;;;;;7.53;1.65;;;;;;;18.70;58.45;101722.69;5029177;28;20050;-68
2022/10/02 12:36:34;;;;;;;8.75;1.45;;;;;;;18.64;59.20;101725.66;5029488;28;20049;-68
2022/10/02 12:39:26;;;;;;;11.60;1.40;;;;;;;18.63;58.80;101719.44;5024511;28;20049;-67
2022/10/02 12:42:14;;;;;;;9.07;1.60;;;;;;;18.58;60.15;101724.16;5025965;28;20133;-67
2022/10/02 12:45:12;;;;;;;9.48;1.70;;;;;;;18.75;59.75;101723.31;5029807;28;20045;-67
2022/10/02 12:48:17;;;;;;;12.68;1.73;;;;;;;18.90;59.39;101720.78;5025244;28;20524;-69
2022/10/02 12:51:28;;;;;;;11.40;1.85;;;;;;;19.06;59.37;101726.25;5022342;28;20050;-68
2022/10/02 12:54:33;;;;;;;8.10;1.20;;;;;;;19.41;57.03;101734.19;5030227;28;20049;-69
2022/10/02 13:00:17;;;;;;;9.50;1.60;;;;;;;19.38;57.29;101721.00;5025926;28;20109;-68
2022/10/02 13:03:27;;;;;;;15.23;1.85;;;;;;;19.32;57.16;101726.66;5028427;28;20096;-69
2022/10/02 13:06:16;;;;;;;11.68;1.50;;;;;;;19.51;57.65;101724.72;5021833;28;20061;-68
2022/10/02 13:09:26;;;;;;;8.32;1.60;;;;;;;19.63;57.83;101725.88;5028097;28;20045;-68
2022/10/02 13:13:04;;;;;;;9.15;1.80;;;;;;;19.86;56.83;101727.31;5027217;28;20069;-68
2022/10/02 13:16:04;;;;;;;7.65;1.55;;;;;;;20.01;56.66;101730.06;5029780;28;20496;-68
2022/10/02 13:19:07;;;;;;;6.82;1.63;;;;;;;20.00;56.57;101736.38;5029531;28;20061;-68
2022/10/02 13:22:08;;;;;;;9.15;1.80;;;;;;;20.00;57.09;101739.94;5031992;28;20528;-68